In Rescue
 
Wind Gusting 00 knots
06
January 20, 2022 8:37 AM EST
Weather Information
Wind Direction
  340 °
Wind Speed
  06 kt (7 mph)
Wind Gust
  00 kt (0 mph)
Altimeter
30.42 in
Visibility
10 SM
Temperature
-05° C
23° F
Dewpoint
-08° C
18° F
Humidity
80%
1hr Rain Fall
00.00 in.
24hr Rain Fall
00.00 in.
Sky Condition
Overcast @ 2,500 ft
MVFR

METAR KIMS 201337Z AUTO 34006KT 10SM OVC025 M05/M08 A3042 RMK AO2

FAA Disclaimer: The data displayed is for advisory purposes only and is not to be used for flight planning or operations.